METAR Data
IDs: Format: Raw Decoded Include TAF

Data at: 0001 UTC 05 Jul 2022

METAR for:YSSY (Sydney Intl, NS, AU)
Text:YSSY 042330Z 15023KT 9000 VCSH SCT012 SCT015 BKN025 15/14 Q1021
Temperature: 15.0°C ( 59°F)
Dewpoint: 14.0°C ( 57°F) [RH = 94%]
Pressure (altimeter):30.15 inches Hg (1021.0 mb)
Winds:from the SSE (150 degrees) at 26 MPH (23 knots; 11.8 m/s)
Visibility: 6 sm ( 9 km)
Ceiling:2500 feet AGL
Clouds: scattered clouds at 1200 feet AGL, scattered clouds at 1500 feet AGL, broken clouds at 2500 feet AGL
Weather:VCSH (showers in vicinity)